sensor_id;sensor_type;location;lat;lon;timestamp;P1;durP1;ratioP1;P2;durP2;ratioP2
3781;SDS011;6881;49.962;7.718;2022-11-18T00:00:03;6.63;;;4.00;;
3781;SDS011;6881;49.962;7.718;2022-11-18T00:02:29;9.30;;;3.87;;
3781;SDS011;6881;49.962;7.718;2022-11-18T00:04:55;3.80;;;2.70;;
3781;SDS011;6881;49.962;7.718;2022-11-18T00:07:20;6.07;;;2.20;;
3781;SDS011;6881;49.962;7.718;2022-11-18T00:09:46;5.43;;;3.43;;
3781;SDS011;6881;49.962;7.718;2022-11-18T00:12:11;6.27;;;3.17;;
3781;SDS011;6881;49.962;7.718;2022-11-18T00:14:55;5.63;;;3.43;;
3781;SDS011;6881;49.962;7.718;2022-11-18T00:17:20;3.77;;;3.30;;
3781;SDS011;6881;49.962;7.718;2022-11-18T00:19:45;4.57;;;3.00;;
3781;SDS011;6881;49.962;7.718;2022-11-18T00:22:11;8.03;;;4.40;;
3781;SDS011;6881;49.962;7.718;2022-11-18T00:24:37;3.30;;;2.50;;
3781;SDS011;6881;49.962;7.718;2022-11-18T00:27:02;4.30;;;2.60;;
3781;SDS011;6881;49.962;7.718;2022-11-18T00:29:28;4.00;;;3.07;;
3781;SDS011;6881;49.962;7.718;2022-11-18T00:31:55;15.80;;;3.97;;
3781;SDS011;6881;49.962;7.718;2022-11-18T00:34:21;3.53;;;2.87;;
3781;SDS011;6881;49.962;7.718;2022-11-18T00:36:46;5.13;;;2.67;;
3781;SDS011;6881;49.962;7.718;2022-11-18T00:39:12;7.00;;;2.67;;
3781;SDS011;6881;49.962;7.718;2022-11-18T00:41:39;6.70;;;2.60;;
3781;SDS011;6881;49.962;7.718;2022-11-18T00:44:23;8.13;;;2.40;;
3781;SDS011;6881;49.962;7.718;2022-11-18T00:46:48;7.40;;;2.70;;
3781;SDS011;6881;49.962;7.718;2022-11-18T00:49:14;3.73;;;2.30;;
3781;SDS011;6881;49.962;7.718;2022-11-18T00:51:39;6.97;;;2.60;;
3781;SDS011;6881;49.962;7.718;2022-11-18T00:54:04;8.13;;;2.50;;
3781;SDS011;6881;49.962;7.718;2022-11-18T00:56:30;4.93;;;2.00;;
3781;SDS011;6881;49.962;7.718;2022-11-18T00:58:55;9.80;;;2.60;;
3781;SDS011;6881;49.962;7.718;2022-11-18T01:01:21;3.57;;;2.20;;
3781;SDS011;6881;49.962;7.718;2022-11-18T01:03:46;3.20;;;2.00;;
3781;SDS011;6881;49.962;7.718;2022-11-18T01:06:11;3.73;;;2.27;;
3781;SDS011;6881;49.962;7.718;2022-11-18T01:08:37;6.17;;;1.90;;
3781;SDS011;6881;49.962;7.718;2022-11-18T01:11:02;5.80;;;2.07;;
3781;SDS011;6881;49.962;7.718;2022-11-18T01:13:50;4.00;;;2.53;;
3781;SDS011;6881;49.962;7.718;2022-11-18T01:16:23;6.17;;;2.80;;
3781;SDS011;6881;49.962;7.718;2022-11-18T01:18:49;5.20;;;2.50;;
3781;SDS011;6881;49.962;7.718;2022-11-18T01:21:15;6.30;;;3.70;;
3781;SDS011;6881;49.962;7.718;2022-11-18T01:23:40;6.00;;;4.30;;
3781;SDS011;6881;49.962;7.718;2022-11-18T01:26:07;5.57;;;3.87;;
3781;SDS011;6881;49.962;7.718;2022-11-18T01:28:33;11.30;;;3.30;;
3781;SDS011;6881;49.962;7.718;2022-11-18T01:31:05;5.63;;;2.73;;
3781;SDS011;6881;49.962;7.718;2022-11-18T01:33:35;8.00;;;2.93;;
3781;SDS011;6881;49.962;7.718;2022-11-18T01:36:01;3.97;;;2.73;;
3781;SDS011;6881;49.962;7.718;2022-11-18T01:38:26;5.67;;;2.93;;
3781;SDS011;6881;49.962;7.718;2022-11-18T01:40:52;4.80;;;3.07;;
3781;SDS011;6881;49.962;7.718;2022-11-18T01:43:19;6.30;;;3.07;;
3781;SDS011;6881;49.962;7.718;2022-11-18T01:45:46;8.93;;;3.37;;
3781;SDS011;6881;49.962;7.718;2022-11-18T01:48:22;6.30;;;2.90;;
3781;SDS011;6881;49.962;7.718;2022-11-18T01:51:10;3.97;;;2.83;;
3781;SDS011;6881;49.962;7.718;2022-11-18T01:53:39;6.73;;;2.90;;
3781;SDS011;6881;49.962;7.718;2022-11-18T01:56:13;5.60;;;3.20;;
3781;SDS011;6881;49.962;7.718;2022-11-18T01:58:45;7.20;;;3.70;;
3781;SDS011;6881;49.962;7.718;2022-11-18T02:01:14;7.70;;;3.00;;
3781;SDS011;6881;49.962;7.718;2022-11-18T02:03:39;4.77;;;2.77;;
3781;SDS011;6881;49.962;7.718;2022-11-18T02:06:06;5.67;;;3.27;;
3781;SDS011;6881;49.962;7.718;2022-11-18T02:08:32;5.23;;;3.23;;
3781;SDS011;6881;49.962;7.718;2022-11-18T02:11:01;4.60;;;2.80;;
3781;SDS011;6881;49.962;7.718;2022-11-18T02:13:28;8.37;;;3.30;;
3781;SDS011;6881;49.962;7.718;2022-11-18T02:29:20;16.23;;;7.40;;
3781;SDS011;6881;49.962;7.718;2022-11-18T02:32:04;9.43;;;6.70;;
3781;SDS011;6881;49.962;7.718;2022-11-18T02:40:20;9.40;;;4.70;;
3781;SDS011;6881;49.962;7.718;2022-11-18T02:42:55;5.77;;;3.93;;
3781;SDS011;6881;49.962;7.718;2022-11-18T02:45:23;10.50;;;4.13;;
3781;SDS011;6881;49.962;7.718;2022-11-18T02:47:50;6.97;;;3.80;;
3781;SDS011;6881;49.962;7.718;2022-11-18T02:50:17;4.40;;;3.40;;
3781;SDS011;6881;49.962;7.718;2022-11-18T02:52:45;6.97;;;3.70;;
3781;SDS011;6881;49.962;7.718;2022-11-18T02:55:12;5.47;;;3.70;;
3781;SDS011;6881;49.962;7.718;2022-11-18T02:57:39;3.53;;;2.40;;
3781;SDS011;6881;49.962;7.718;2022-11-18T03:00:08;3.40;;;2.23;;
3781;SDS011;6881;49.962;7.718;2022-11-18T03:02:41;8.03;;;3.00;;
3781;SDS011;6881;49.962;7.718;2022-11-18T03:05:28;3.10;;;2.50;;
3781;SDS011;6881;49.962;7.718;2022-11-18T03:08:10;4.23;;;2.60;;
3781;SDS011;6881;49.962;7.718;2022-11-18T03:10:39;3.20;;;2.20;;
3781;SDS011;6881;49.962;7.718;2022-11-18T03:13:10;5.27;;;3.20;;
3781;SDS011;6881;49.962;7.718;2022-11-18T03:18:36;2.47;;;2.10;;
3781;SDS011;6881;49.962;7.718;2022-11-18T03:21:16;2.70;;;2.43;;
3781;SDS011;6881;49.962;7.718;2022-11-18T03:24:09;3.20;;;2.33;;
3781;SDS011;6881;49.962;7.718;2022-11-18T03:26:37;3.40;;;2.37;;
3781;SDS011;6881;49.962;7.718;2022-11-18T03:29:05;4.23;;;2.17;;
3781;SDS011;6881;49.962;7.718;2022-11-18T03:31:39;6.50;;;2.30;;
3781;SDS011;6881;49.962;7.718;2022-11-18T03:34:13;9.63;;;2.20;;
3781;SDS011;6881;49.962;7.718;2022-11-18T03:36:46;3.20;;;2.23;;
3781;SDS011;6881;49.962;7.718;2022-11-18T03:39:14;4.80;;;2.47;;
3781;SDS011;6881;49.962;7.718;2022-11-18T03:41:52;5.60;;;2.50;;
3781;SDS011;6881;49.962;7.718;2022-11-18T03:44:21;8.13;;;2.27;;
3781;SDS011;6881;49.962;7.718;2022-11-18T03:46:50;2.63;;;2.33;;
3781;SDS011;6881;49.962;7.718;2022-11-18T03:49:23;4.33;;;2.33;;
3781;SDS011;6881;49.962;7.718;2022-11-18T03:51:55;3.03;;;1.70;;
3781;SDS011;6881;49.962;7.718;2022-11-18T03:54:24;2.40;;;1.97;;
3781;SDS011;6881;49.962;7.718;2022-11-18T03:57:00;4.93;;;2.47;;
3781;SDS011;6881;49.962;7.718;2022-11-18T03:59:32;3.33;;;2.40;;
3781;SDS011;6881;49.962;7.718;2022-11-18T04:02:02;4.33;;;2.00;;
3781;SDS011;6881;49.962;7.718;2022-11-18T04:04:30;3.93;;;1.87;;
3781;SDS011;6881;49.962;7.718;2022-11-18T04:07:05;4.30;;;2.40;;
3781;SDS011;6881;49.962;7.718;2022-11-18T04:09:40;3.90;;;2.10;;
3781;SDS011;6881;49.962;7.718;2022-11-18T04:12:10;2.50;;;2.20;;
3781;SDS011;6881;49.962;7.718;2022-11-18T04:14:39;3.03;;;2.40;;
3781;SDS011;6881;49.962;7.718;2022-11-18T04:17:07;2.10;;;1.90;;
3781;SDS011;6881;49.962;7.718;2022-11-18T04:19:34;5.47;;;2.23;;
3781;SDS011;6881;49.962;7.718;2022-11-18T04:21:59;2.70;;;2.20;;
3781;SDS011;6881;49.962;7.718;2022-11-18T04:24:25;2.80;;;2.00;;
3781;SDS011;6881;49.962;7.718;2022-11-18T04:26:50;3.13;;;2.10;;
3781;SDS011;6881;49.962;7.718;2022-11-18T04:29:15;4.03;;;2.10;;
3781;SDS011;6881;49.962;7.718;2022-11-18T04:31:41;4.67;;;2.80;;
3781;SDS011;6881;49.962;7.718;2022-11-18T04:34:06;4.20;;;2.93;;
3781;SDS011;6881;49.962;7.718;2022-11-18T04:36:32;5.47;;;4.00;;
3781;SDS011;6881;49.962;7.718;2022-11-18T04:38:57;5.97;;;4.33;;
3781;SDS011;6881;49.962;7.718;2022-11-18T04:41:22;5.70;;;4.80;;
3781;SDS011;6881;49.962;7.718;2022-11-18T04:44:07;6.23;;;4.90;;
3781;SDS011;6881;49.962;7.718;2022-11-18T04:46:37;5.03;;;4.53;;
3781;SDS011;6881;49.962;7.718;2022-11-18T04:49:03;6.70;;;4.23;;
3781;SDS011;6881;49.962;7.718;2022-11-18T04:51:29;5.10;;;4.10;;
3781;SDS011;6881;49.962;7.718;2022-11-18T04:53:54;6.10;;;4.47;;
3781;SDS011;6881;49.962;7.718;2022-11-18T04:56:19;6.57;;;4.30;;
3781;SDS011;6881;49.962;7.718;2022-11-18T04:58:45;5.73;;;4.00;;
3781;SDS011;6881;49.962;7.718;2022-11-18T05:01:10;5.30;;;3.87;;
3781;SDS011;6881;49.962;7.718;2022-11-18T05:03:35;6.33;;;3.97;;
3781;SDS011;6881;49.962;7.718;2022-11-18T05:06:00;11.13;;;4.57;;
3781;SDS011;6881;49.962;7.718;2022-11-18T05:08:26;7.10;;;4.90;;
3781;SDS011;6881;49.962;7.718;2022-11-18T05:10:51;7.70;;;5.27;;
3781;SDS011;6881;49.962;7.718;2022-11-18T05:13:38;2.70;;;2.40;;
3781;SDS011;6881;49.962;7.718;2022-11-18T05:16:03;2.60;;;1.73;;
3781;SDS011;6881;49.962;7.718;2022-11-18T05:18:29;2.33;;;2.13;;
3781;SDS011;6881;49.962;7.718;2022-11-18T05:20:54;2.57;;;1.83;;
3781;SDS011;6881;49.962;7.718;2022-11-18T05:23:19;2.73;;;2.03;;
3781;SDS011;6881;49.962;7.718;2022-11-18T05:25:44;2.43;;;1.83;;
3781;SDS011;6881;49.962;7.718;2022-11-18T05:28:10;3.20;;;2.00;;
3781;SDS011;6881;49.962;7.718;2022-11-18T05:30:35;2.70;;;1.90;;
3781;SDS011;6881;49.962;7.718;2022-11-18T05:33:00;4.33;;;2.20;;
3781;SDS011;6881;49.962;7.718;2022-11-18T05:35:26;3.23;;;1.57;;
3781;SDS011;6881;49.962;7.718;2022-11-18T05:37:51;3.27;;;2.03;;
3781;SDS011;6881;49.962;7.718;2022-11-18T05:40:16;2.73;;;1.63;;
3781;SDS011;6881;49.962;7.718;2022-11-18T05:42:42;1.50;;;1.30;;
3781;SDS011;6881;49.962;7.718;2022-11-18T05:45:26;2.60;;;1.93;;
3781;SDS011;6881;49.962;7.718;2022-11-18T05:47:51;2.70;;;2.00;;
3781;SDS011;6881;49.962;7.718;2022-11-18T05:50:28;2.00;;;1.80;;
3781;SDS011;6881;49.962;7.718;2022-11-18T05:52:53;1.60;;;1.10;;
3781;SDS011;6881;49.962;7.718;2022-11-18T05:55:18;3.50;;;1.10;;
3781;SDS011;6881;49.962;7.718;2022-11-18T05:57:44;1.83;;;1.70;;
3781;SDS011;6881;49.962;7.718;2022-11-18T06:00:10;1.40;;;1.10;;
3781;SDS011;6881;49.962;7.718;2022-11-18T06:02:36;2.80;;;1.83;;
3781;SDS011;6881;49.962;7.718;2022-11-18T06:05:02;2.20;;;2.00;;
3781;SDS011;6881;49.962;7.718;2022-11-18T06:07:29;2.20;;;1.37;;
3781;SDS011;6881;49.962;7.718;2022-11-18T06:10:01;2.47;;;1.30;;
3781;SDS011;6881;49.962;7.718;2022-11-18T06:12:28;2.20;;;1.20;;
3781;SDS011;6881;49.962;7.718;2022-11-18T06:14:59;1.83;;;1.27;;
3781;SDS011;6881;49.962;7.718;2022-11-18T06:17:28;2.27;;;1.67;;
3781;SDS011;6881;49.962;7.718;2022-11-18T06:19:55;1.30;;;1.07;;
3781;SDS011;6881;49.962;7.718;2022-11-18T06:22:21;1.37;;;1.27;;
3781;SDS011;6881;49.962;7.718;2022-11-18T06:24:47;1.70;;;1.23;;
3781;SDS011;6881;49.962;7.718;2022-11-18T06:27:12;2.17;;;1.47;;
3781;SDS011;6881;49.962;7.718;2022-11-18T06:29:39;1.33;;;1.17;;
3781;SDS011;6881;49.962;7.718;2022-11-18T06:32:04;4.00;;;1.80;;
3781;SDS011;6881;49.962;7.718;2022-11-18T06:34:30;2.40;;;1.57;;
3781;SDS011;6881;49.962;7.718;2022-11-18T06:36:55;2.50;;;2.30;;
3781;SDS011;6881;49.962;7.718;2022-11-18T06:39:20;3.23;;;2.23;;
3781;SDS011;6881;49.962;7.718;2022-11-18T06:41:46;3.67;;;2.07;;
3781;SDS011;6881;49.962;7.718;2022-11-18T06:44:12;4.60;;;2.20;;
3781;SDS011;6881;49.962;7.718;2022-11-18T06:46:37;5.07;;;2.67;;
3781;SDS011;6881;49.962;7.718;2022-11-18T06:49:21;4.83;;;3.10;;
3781;SDS011;6881;49.962;7.718;2022-11-18T06:51:50;2.70;;;2.47;;
3781;SDS011;6881;49.962;7.718;2022-11-18T06:54:15;3.83;;;3.10;;
3781;SDS011;6881;49.962;7.718;2022-11-18T06:56:41;4.40;;;4.00;;
3781;SDS011;6881;49.962;7.718;2022-11-18T06:59:06;12.70;;;7.13;;
3781;SDS011;6881;49.962;7.718;2022-11-18T07:01:33;11.53;;;5.80;;
3781;SDS011;6881;49.962;7.718;2022-11-18T07:04:00;7.73;;;4.90;;
3781;SDS011;6881;49.962;7.718;2022-11-18T07:06:27;5.60;;;4.33;;
3781;SDS011;6881;49.962;7.718;2022-11-18T07:08:54;7.20;;;4.30;;
3781;SDS011;6881;49.962;7.718;2022-11-18T07:11:21;6.70;;;3.90;;
3781;SDS011;6881;49.962;7.718;2022-11-18T07:13:47;3.93;;;2.87;;
3781;SDS011;6881;49.962;7.718;2022-11-18T07:16:14;6.33;;;3.00;;
3781;SDS011;6881;49.962;7.718;2022-11-18T07:18:41;3.50;;;3.00;;
3781;SDS011;6881;49.962;7.718;2022-11-18T07:21:09;2.53;;;2.33;;
3781;SDS011;6881;49.962;7.718;2022-11-18T07:23:36;5.67;;;3.40;;
3781;SDS011;6881;49.962;7.718;2022-11-18T07:26:02;4.50;;;2.77;;
3781;SDS011;6881;49.962;7.718;2022-11-18T07:28:27;3.97;;;2.80;;
3781;SDS011;6881;49.962;7.718;2022-11-18T07:31:03;5.47;;;3.00;;
3781;SDS011;6881;49.962;7.718;2022-11-18T07:33:32;3.70;;;2.50;;
3781;SDS011;6881;49.962;7.718;2022-11-18T07:36:09;3.67;;;2.90;;
3781;SDS011;6881;49.962;7.718;2022-11-18T07:38:36;4.33;;;2.40;;
3781;SDS011;6881;49.962;7.718;2022-11-18T07:41:05;3.43;;;3.13;;
3781;SDS011;6881;49.962;7.718;2022-11-18T07:43:33;5.00;;;4.60;;
3781;SDS011;6881;49.962;7.718;2022-11-18T07:46:06;9.30;;;6.87;;
3781;SDS011;6881;49.962;7.718;2022-11-18T07:48:53;48.27;;;28.20;;
3781;SDS011;6881;49.962;7.718;2022-11-18T07:51:20;61.70;;;34.00;;
3781;SDS011;6881;49.962;7.718;2022-11-18T07:53:47;29.80;;;19.00;;
3781;SDS011;6881;49.962;7.718;2022-11-18T07:56:13;19.60;;;13.90;;
3781;SDS011;6881;49.962;7.718;2022-11-18T07:58:39;12.33;;;8.13;;
3781;SDS011;6881;49.962;7.718;2022-11-18T08:01:08;10.80;;;7.13;;
3781;SDS011;6881;49.962;7.718;2022-11-18T08:03:35;7.00;;;3.73;;
3781;SDS011;6881;49.962;7.718;2022-11-18T08:06:01;8.67;;;3.87;;
3781;SDS011;6881;49.962;7.718;2022-11-18T08:08:27;7.20;;;3.97;;
3781;SDS011;6881;49.962;7.718;2022-11-18T08:10:57;7.37;;;4.37;;
3781;SDS011;6881;49.962;7.718;2022-11-18T08:13:23;8.77;;;5.10;;
3781;SDS011;6881;49.962;7.718;2022-11-18T08:15:49;5.23;;;4.20;;
3781;SDS011;6881;49.962;7.718;2022-11-18T08:18:15;6.90;;;3.97;;
3781;SDS011;6881;49.962;7.718;2022-11-18T08:20:40;4.70;;;4.30;;
3781;SDS011;6881;49.962;7.718;2022-11-18T08:23:06;5.90;;;4.63;;
3781;SDS011;6881;49.962;7.718;2022-11-18T08:25:31;6.80;;;4.57;;
3781;SDS011;6881;49.962;7.718;2022-11-18T08:27:56;4.50;;;3.57;;
3781;SDS011;6881;49.962;7.718;2022-11-18T08:30:22;6.63;;;3.90;;
3781;SDS011;6881;49.962;7.718;2022-11-18T08:32:47;5.87;;;3.33;;
3781;SDS011;6881;49.962;7.718;2022-11-18T08:35:13;5.47;;;3.93;;
3781;SDS011;6881;49.962;7.718;2022-11-18T08:37:38;5.70;;;3.27;;
3781;SDS011;6881;49.962;7.718;2022-11-18T08:40:04;3.87;;;3.53;;
3781;SDS011;6881;49.962;7.718;2022-11-18T08:42:29;3.90;;;2.73;;
3781;SDS011;6881;49.962;7.718;2022-11-18T08:44:55;4.90;;;2.70;;
3781;SDS011;6881;49.962;7.718;2022-11-18T08:47:20;3.00;;;2.63;;
3781;SDS011;6881;49.962;7.718;2022-11-18T08:49:46;3.83;;;3.10;;
3781;SDS011;6881;49.962;7.718;2022-11-18T08:52:11;5.43;;;2.80;;
3781;SDS011;6881;49.962;7.718;2022-11-18T08:54:36;8.27;;;4.50;;
3781;SDS011;6881;49.962;7.718;2022-11-18T08:57:02;6.50;;;4.20;;
3781;SDS011;6881;49.962;7.718;2022-11-18T08:59:27;12.23;;;6.27;;
3781;SDS011;6881;49.962;7.718;2022-11-18T09:01:53;9.63;;;5.60;;
3781;SDS011;6881;49.962;7.718;2022-11-18T09:04:18;13.87;;;5.20;;
3781;SDS011;6881;49.962;7.718;2022-11-18T09:06:43;6.00;;;4.03;;
3781;SDS011;6881;49.962;7.718;2022-11-18T09:09:09;4.07;;;3.00;;
3781;SDS011;6881;49.962;7.718;2022-11-18T09:11:34;4.90;;;3.80;;
3781;SDS011;6881;49.962;7.718;2022-11-18T09:14:02;9.37;;;4.40;;
3781;SDS011;6881;49.962;7.718;2022-11-18T09:16:28;5.20;;;3.57;;
3781;SDS011;6881;49.962;7.718;2022-11-18T09:18:55;9.43;;;5.10;;
3781;SDS011;6881;49.962;7.718;2022-11-18T09:21:22;8.37;;;3.40;;
3781;SDS011;6881;49.962;7.718;2022-11-18T09:23:47;7.10;;;3.00;;
3781;SDS011;6881;49.962;7.718;2022-11-18T09:26:14;7.47;;;4.77;;
3781;SDS011;6881;49.962;7.718;2022-11-18T09:28:43;6.83;;;3.73;;
3781;SDS011;6881;49.962;7.718;2022-11-18T09:31:10;6.90;;;3.80;;
3781;SDS011;6881;49.962;7.718;2022-11-18T09:33:36;5.13;;;3.40;;
3781;SDS011;6881;49.962;7.718;2022-11-18T09:36:10;4.60;;;3.00;;
3781;SDS011;6881;49.962;7.718;2022-11-18T09:38:40;6.53;;;3.83;;
3781;SDS011;6881;49.962;7.718;2022-11-18T09:43:41;2.70;;;2.50;;
3781;SDS011;6881;49.962;7.718;2022-11-18T09:49:10;4.27;;;2.80;;
3781;SDS011;6881;49.962;7.718;2022-11-18T09:51:43;3.67;;;3.20;;
3781;SDS011;6881;49.962;7.718;2022-11-18T09:56:49;4.13;;;3.07;;
3781;SDS011;6881;49.962;7.718;2022-11-18T09:59:16;6.20;;;3.10;;
3781;SDS011;6881;49.962;7.718;2022-11-18T10:01:43;3.50;;;3.20;;
3781;SDS011;6881;49.962;7.718;2022-11-18T10:04:13;3.83;;;3.33;;
3781;SDS011;6881;49.962;7.718;2022-11-18T10:06:39;4.80;;;2.00;;
3781;SDS011;6881;49.962;7.718;2022-11-18T10:17:23;4.17;;;2.30;;
3781;SDS011;6881;49.962;7.718;2022-11-18T10:22:57;2.40;;;1.70;;
3781;SDS011;6881;49.962;7.718;2022-11-18T10:25:44;4.10;;;1.83;;
3781;SDS011;6881;49.962;7.718;2022-11-18T10:28:17;2.87;;;1.77;;
3781;SDS011;6881;49.962;7.718;2022-11-18T10:30:46;3.20;;;1.70;;
3781;SDS011;6881;49.962;7.718;2022-11-18T10:35:46;2.37;;;1.63;;
3781;SDS011;6881;49.962;7.718;2022-11-18T10:40:37;3.97;;;1.70;;
3781;SDS011;6881;49.962;7.718;2022-11-18T10:43:08;2.73;;;2.00;;
3781;SDS011;6881;49.962;7.718;2022-11-18T10:45:34;2.23;;;1.67;;
3781;SDS011;6881;49.962;7.718;2022-11-18T10:50:57;1.67;;;1.53;;
3781;SDS011;6881;49.962;7.718;2022-11-18T10:53:47;4.33;;;2.00;;
3781;SDS011;6881;49.962;7.718;2022-11-18T10:56:13;2.40;;;1.80;;
3781;SDS011;6881;49.962;7.718;2022-11-18T10:58:45;2.00;;;1.77;;
3781;SDS011;6881;49.962;7.718;2022-11-18T11:01:18;4.67;;;3.57;;
3781;SDS011;6881;49.962;7.718;2022-11-18T11:03:58;4.20;;;2.07;;
3781;SDS011;6881;49.962;7.718;2022-11-18T11:06:35;3.37;;;2.03;;
3781;SDS011;6881;49.962;7.718;2022-11-18T11:09:03;2.50;;;1.40;;
3781;SDS011;6881;49.962;7.718;2022-11-18T11:17:07;2.60;;;1.90;;
3781;SDS011;6881;49.962;7.718;2022-11-18T11:19:46;3.20;;;1.90;;
3781;SDS011;6881;49.962;7.718;2022-11-18T11:22:14;2.57;;;1.50;;
3781;SDS011;6881;49.962;7.718;2022-11-18T11:24:40;5.80;;;1.27;;
3781;SDS011;6881;49.962;7.718;2022-11-18T11:27:09;6.30;;;3.27;;
3781;SDS011;6881;49.962;7.718;2022-11-18T11:30:08;1.93;;;1.70;;
3781;SDS011;6881;49.962;7.718;2022-11-18T11:38:28;5.77;;;2.00;;
3781;SDS011;6881;49.962;7.718;2022-11-18T11:49:18;6.53;;;3.90;;
3781;SDS011;6881;49.962;7.718;2022-11-18T11:51:55;7.50;;;5.00;;
3781;SDS011;6881;49.962;7.718;2022-11-18T11:59:59;5.53;;;2.57;;
3781;SDS011;6881;49.962;7.718;2022-11-18T12:07:52;3.10;;;2.10;;
3781;SDS011;6881;49.962;7.718;2022-11-18T12:10:25;6.70;;;2.77;;
3781;SDS011;6881;49.962;7.718;2022-11-18T12:13:02;4.47;;;2.20;;
3781;SDS011;6881;49.962;7.718;2022-11-18T12:15:56;2.67;;;2.47;;
3781;SDS011;6881;49.962;7.718;2022-11-18T12:18:59;4.13;;;2.00;;
3781;SDS011;6881;49.962;7.718;2022-11-18T12:26:41;15.77;;;8.90;;
3781;SDS011;6881;49.962;7.718;2022-11-18T12:31:47;3.60;;;3.17;;
3781;SDS011;6881;49.962;7.718;2022-11-18T12:36:49;10.30;;;9.20;;
3781;SDS011;6881;49.962;7.718;2022-11-18T12:41:55;9.80;;;8.50;;
3781;SDS011;6881;49.962;7.718;2022-11-18T12:44:41;9.33;;;5.13;;
3781;SDS011;6881;49.962;7.718;2022-11-18T12:47:11;6.10;;;3.10;;
3781;SDS011;6881;49.962;7.718;2022-11-18T12:52:44;1.60;;;1.37;;
3781;SDS011;6881;49.962;7.718;2022-11-18T12:54:54;4.97;;;2.10;;
3781;SDS011;6881;49.962;7.718;2022-11-18T12:57:25;4.00;;;2.50;;
3781;SDS011;6881;49.962;7.718;2022-11-18T12:59:52;4.33;;;3.30;;
3781;SDS011;6881;49.962;7.718;2022-11-18T13:02:28;8.43;;;3.70;;
3781;SDS011;6881;49.962;7.718;2022-11-18T13:05:05;5.47;;;3.23;;
3781;SDS011;6881;49.962;7.718;2022-11-18T13:07:44;4.57;;;3.20;;
3781;SDS011;6881;49.962;7.718;2022-11-18T13:10:33;4.10;;;3.00;;
3781;SDS011;6881;49.962;7.718;2022-11-18T13:13:02;5.30;;;2.93;;
3781;SDS011;6881;49.962;7.718;2022-11-18T13:15:28;5.73;;;2.50;;
3781;SDS011;6881;49.962;7.718;2022-11-18T13:18:16;7.27;;;3.90;;
3781;SDS011;6881;49.962;7.718;2022-11-18T13:20:43;2.60;;;1.93;;
3781;SDS011;6881;49.962;7.718;2022-11-18T13:26:23;3.87;;;2.37;;
3781;SDS011;6881;49.962;7.718;2022-11-18T13:31:27;2.50;;;1.77;;
3781;SDS011;6881;49.962;7.718;2022-11-18T13:34:00;3.43;;;1.43;;
3781;SDS011;6881;49.962;7.718;2022-11-18T13:36:26;2.70;;;1.40;;
3781;SDS011;6881;49.962;7.718;2022-11-18T13:39:02;2.23;;;1.47;;
3781;SDS011;6881;49.962;7.718;2022-11-18T13:41:29;1.50;;;1.30;;
3781;SDS011;6881;49.962;7.718;2022-11-18T13:44:16;4.27;;;1.97;;
3781;SDS011;6881;49.962;7.718;2022-11-18T13:46:43;2.83;;;1.37;;
3781;SDS011;6881;49.962;7.718;2022-11-18T13:49:14;3.27;;;1.40;;
3781;SDS011;6881;49.962;7.718;2022-11-18T13:51:43;3.20;;;1.30;;
3781;SDS011;6881;49.962;7.718;2022-11-18T13:54:10;1.90;;;1.57;;
3781;SDS011;6881;49.962;7.718;2022-11-18T13:56:37;3.93;;;1.80;;
3781;SDS011;6881;49.962;7.718;2022-11-18T13:59:04;2.80;;;1.83;;
3781;SDS011;6881;49.962;7.718;2022-11-18T14:01:32;4.37;;;1.77;;
3781;SDS011;6881;49.962;7.718;2022-11-18T14:04:06;12.20;;;5.50;;
3781;SDS011;6881;49.962;7.718;2022-11-18T14:06:40;18.70;;;6.77;;
3781;SDS011;6881;49.962;7.718;2022-11-18T14:14:37;28.10;;;14.47;;
3781;SDS011;6881;49.962;7.718;2022-11-18T14:17:14;38.73;;;17.47;;
3781;SDS011;6881;49.962;7.718;2022-11-18T14:19:44;38.93;;;21.70;;
3781;SDS011;6881;49.962;7.718;2022-11-18T14:22:11;30.80;;;16.93;;
3781;SDS011;6881;49.962;7.718;2022-11-18T14:24:39;33.73;;;17.20;;
3781;SDS011;6881;49.962;7.718;2022-11-18T14:33:20;17.93;;;10.87;;
3781;SDS011;6881;49.962;7.718;2022-11-18T14:35:56;15.20;;;9.37;;
3781;SDS011;6881;49.962;7.718;2022-11-18T14:38:26;15.00;;;7.83;;
3781;SDS011;6881;49.962;7.718;2022-11-18T14:41:12;29.40;;;13.97;;
3781;SDS011;6881;49.962;7.718;2022-11-18T14:43:38;29.87;;;12.93;;
3781;SDS011;6881;49.962;7.718;2022-11-18T14:46:05;32.90;;;14.00;;
3781;SDS011;6881;49.962;7.718;2022-11-18T14:48:39;46.57;;;19.23;;
3781;SDS011;6881;49.962;7.718;2022-11-18T14:51:04;38.80;;;20.27;;
3781;SDS011;6881;49.962;7.718;2022-11-18T14:53:30;50.20;;;22.50;;
3781;SDS011;6881;49.962;7.718;2022-11-18T14:55:55;28.20;;;13.20;;
3781;SDS011;6881;49.962;7.718;2022-11-18T14:58:23;27.90;;;12.00;;
3781;SDS011;6881;49.962;7.718;2022-11-18T15:00:48;30.43;;;16.83;;
3781;SDS011;6881;49.962;7.718;2022-11-18T15:03:14;26.80;;;14.07;;
3781;SDS011;6881;49.962;7.718;2022-11-18T15:05:39;28.70;;;14.50;;
3781;SDS011;6881;49.962;7.718;2022-11-18T15:08:05;29.63;;;15.93;;
3781;SDS011;6881;49.962;7.718;2022-11-18T15:10:31;33.60;;;16.97;;
3781;SDS011;6881;49.962;7.718;2022-11-18T15:12:56;30.70;;;15.60;;
3781;SDS011;6881;49.962;7.718;2022-11-18T15:15:22;40.87;;;19.50;;
3781;SDS011;6881;49.962;7.718;2022-11-18T15:17:47;52.03;;;23.33;;
3781;SDS011;6881;49.962;7.718;2022-11-18T15:20:13;47.30;;;25.07;;
3781;SDS011;6881;49.962;7.718;2022-11-18T15:22:40;35.73;;;21.17;;
3781;SDS011;6881;49.962;7.718;2022-11-18T15:25:07;19.13;;;12.83;;
3781;SDS011;6881;49.962;7.718;2022-11-18T15:27:33;20.73;;;11.23;;
3781;SDS011;6881;49.962;7.718;2022-11-18T15:29:58;13.90;;;10.87;;
3781;SDS011;6881;49.962;7.718;2022-11-18T15:32:24;16.30;;;11.50;;
3781;SDS011;6881;49.962;7.718;2022-11-18T15:34:49;16.60;;;11.20;;
3781;SDS011;6881;49.962;7.718;2022-11-18T15:37:15;20.10;;;10.17;;
3781;SDS011;6881;49.962;7.718;2022-11-18T15:39:40;10.27;;;7.73;;
3781;SDS011;6881;49.962;7.718;2022-11-18T15:42:05;23.37;;;16.70;;
3781;SDS011;6881;49.962;7.718;2022-11-18T15:44:31;17.40;;;12.20;;
3781;SDS011;6881;49.962;7.718;2022-11-18T15:46:56;14.53;;;11.30;;
3781;SDS011;6881;49.962;7.718;2022-11-18T15:49:24;14.80;;;10.83;;
3781;SDS011;6881;49.962;7.718;2022-11-18T15:51:49;21.17;;;12.53;;
3781;SDS011;6881;49.962;7.718;2022-11-18T15:54:14;20.80;;;13.13;;
3781;SDS011;6881;49.962;7.718;2022-11-18T15:56:40;25.50;;;16.40;;
3781;SDS011;6881;49.962;7.718;2022-11-18T15:59:08;31.47;;;18.70;;
3781;SDS011;6881;49.962;7.718;2022-11-18T16:01:35;28.13;;;18.57;;
3781;SDS011;6881;49.962;7.718;2022-11-18T16:04:02;22.73;;;15.57;;
3781;SDS011;6881;49.962;7.718;2022-11-18T16:06:28;11.40;;;8.67;;
3781;SDS011;6881;49.962;7.718;2022-11-18T16:08:54;11.30;;;8.43;;
3781;SDS011;6881;49.962;7.718;2022-11-18T16:11:19;11.63;;;9.90;;
3781;SDS011;6881;49.962;7.718;2022-11-18T16:14:04;11.70;;;7.43;;
3781;SDS011;6881;49.962;7.718;2022-11-18T16:16:33;17.70;;;8.00;;
3781;SDS011;6881;49.962;7.718;2022-11-18T16:19:00;13.33;;;7.97;;
3781;SDS011;6881;49.962;7.718;2022-11-18T16:21:31;8.47;;;6.93;;
3781;SDS011;6881;49.962;7.718;2022-11-18T16:23:58;8.77;;;7.87;;
3781;SDS011;6881;49.962;7.718;2022-11-18T16:26:25;10.40;;;7.50;;
3781;SDS011;6881;49.962;7.718;2022-11-18T16:28:50;13.43;;;9.77;;
3781;SDS011;6881;49.962;7.718;2022-11-18T16:31:16;31.03;;;19.20;;
3781;SDS011;6881;49.962;7.718;2022-11-18T16:34:04;27.13;;;18.03;;
3781;SDS011;6881;49.962;7.718;2022-11-18T16:36:49;16.40;;;11.90;;
3781;SDS011;6881;49.962;7.718;2022-11-18T16:39:17;10.53;;;8.20;;
3781;SDS011;6881;49.962;7.718;2022-11-18T16:41:44;6.03;;;4.60;;
3781;SDS011;6881;49.962;7.718;2022-11-18T16:44:11;6.37;;;4.17;;
3781;SDS011;6881;49.962;7.718;2022-11-18T16:46:39;10.47;;;5.80;;
3781;SDS011;6881;49.962;7.718;2022-11-18T16:49:05;5.63;;;4.73;;
3781;SDS011;6881;49.962;7.718;2022-11-18T16:51:32;6.27;;;5.77;;
3781;SDS011;6881;49.962;7.718;2022-11-18T16:53:59;9.43;;;6.53;;
3781;SDS011;6881;49.962;7.718;2022-11-18T16:56:26;11.50;;;7.17;;
3781;SDS011;6881;49.962;7.718;2022-11-18T16:59:00;7.57;;;6.63;;
3781;SDS011;6881;49.962;7.718;2022-11-18T17:01:25;8.07;;;6.93;;
3781;SDS011;6881;49.962;7.718;2022-11-18T17:03:52;8.93;;;8.03;;
3781;SDS011;6881;49.962;7.718;2022-11-18T17:06:18;9.50;;;8.10;;
3781;SDS011;6881;49.962;7.718;2022-11-18T17:08:44;14.13;;;12.60;;
3781;SDS011;6881;49.962;7.718;2022-11-18T17:11:09;10.50;;;7.90;;
3781;SDS011;6881;49.962;7.718;2022-11-18T17:13:36;8.53;;;6.40;;